Forside
METAR-TAF:

METAR-TAF

Lufthavne :

Illinois Valley Regional Airport (Walter A. Duncan Field)

Peru / LaSalle, Illinois, USA

Breddekreds: 41-21-07N, længdekreds: 089-09-11W, højde: 199 m

Aktuelle vejr

Denne rapport blev lavet for 19 minutter siden, kl. 23:15 UTC
Vind 5 kt fra nordøst
Temperatur -1°C
Fugtighed 59%
Tryk 1031 hPa
Sigt: 16.1 km
skyfri

METAR: KVYS 142315Z AUTO 05005KT 10SM CLR M01/M08 A3045 RMK AO2 T10061081

Tid: 17:34 (23:34 UTC)


TAF: fraværende

Vejrobservationer og prognoser fra mere end 4000 lufthavne (METAR og TAF).

De gule og røde prikker repræsenterer de meteorologiske stationer.

Flyt musen over at se navnet på stationen.

Så klik over at se vejr observationer og prognoser.

At skifte det kort: Klik på de grønne knapper med et sort kors for at zoome ind; på den grønne knap med en bindestreg for at zoome ud; eller på de grønne pile for tilstødende kort.


METAR-TAF: